Time;durP1;ratioP1;P1;durP2;ratioP2;P2;SDS_P1;SDS_P2;PMS_P1;PMS_P2;Temp;Humidity;BMP_temperature;BMP_pressure;BME280_temperature;BME280_humidity;BME280_pressure;Samples;Min_cycle;Max_cycle;Signal;HPM_P1;HPM_P2
2023/01/27 00:00:52;;;;;;;9.35;3.72;;;;;;;;;;4963868;28;20453;-78
2023/01/27 00:03:19;;;;;;;10.13;4.40;;;;;;;;;;4962707;28;20666;-78
2023/01/27 00:05:46;;;;;;;10.05;4.63;;;;;;;;;;4965074;28;20053;-79
2023/01/27 00:08:12;;;;;;;9.27;4.65;;;;;;;;;;4964936;28;20031;-78
2023/01/27 00:10:38;;;;;;;8.45;3.97;;;;;;;;;;4965155;28;20022;-78
2023/01/27 00:15:49;;;;;;;5.53;3.08;;;;;;;;;;4964869;28;20395;-77
2023/01/27 00:18:15;;;;;;;5.38;3.75;;;;;;;;;;4977474;28;20061;-78
2023/01/27 00:26:13;;;;;;;8.85;3.42;;;;;;;;;;4974164;28;20046;-78
2023/01/27 00:28:40;;;;;;;7.63;3.83;;;;;;;;;;4971502;28;20054;-78
2023/01/27 00:34:00;;;;;;;5.95;3.90;;;;;;;;;;4970151;28;20061;-79
2023/01/27 00:36:27;;;;;;;7.03;4.32;;;;;;;;;;4971507;28;20101;-78
2023/01/27 00:38:53;;;;;;;6.38;4.07;;;;;;;;;;4969189;28;20026;-78
2023/01/27 00:41:19;;;;;;;7.68;3.97;;;;;;;;;;4973717;28;20023;-78
2023/01/27 00:43:46;;;;;;;9.18;4.53;;;;;;;;;;4963241;28;20042;-77
2023/01/27 00:46:12;;;;;;;9.35;4.50;;;;;;;;;;4986837;28;20081;-78
2023/01/27 00:48:38;;;;;;;5.65;4.47;;;;;;;;;;4970877;28;20030;-78
2023/01/27 00:51:04;;;;;;;8.25;4.40;;;;;;;;;;4973178;28;20023;-78
2023/01/27 00:53:31;;;;;;;7.35;3.95;;;;;;;;;;4963904;28;20109;-78
2023/01/27 00:55:57;;;;;;;7.88;5.25;;;;;;;;;;4963773;28;20058;-78
2023/01/27 00:58:27;;;;;;;9.48;5.68;;;;;;;;;;4972634;28;20150;-78
2023/01/27 01:00:53;;;;;;;8.40;5.10;;;;;;;;;;4971368;28;20039;-79
2023/01/27 01:03:20;;;;;;;7.15;5.00;;;;;;;;;;4968728;28;20039;-78
2023/01/27 01:05:46;;;;;;;4.22;3.33;;;;;;;;;;4968028;28;20109;-78
2023/01/27 01:08:12;;;;;;;4.97;3.53;;;;;;;;;;4972834;28;20022;-78
2023/01/27 01:10:38;;;;;;;8.35;3.72;;;;;;;;;;4966474;28;20057;-78
2023/01/27 01:13:06;;;;;;;4.97;3.58;;;;;;;;;;4971479;28;20038;-79
2023/01/27 01:15:36;;;;;;;7.70;3.80;;;;;;;;;;4975150;28;20030;-79
2023/01/27 01:18:03;;;;;;;7.03;4.03;;;;;;;;;;4969697;28;20062;-78
2023/01/27 01:20:29;;;;;;;7.28;4.72;;;;;;;;;;4971382;28;20031;-79
2023/01/27 01:22:56;;;;;;;6.55;4.75;;;;;;;;;;4965711;28;20142;-79
2023/01/27 01:25:22;;;;;;;7.22;4.95;;;;;;;;;;4967327;28;20077;-78
2023/01/27 01:27:48;;;;;;;7.65;5.10;;;;;;;;;;4962157;28;20465;-78
2023/01/27 01:30:14;;;;;;;9.35;5.85;;;;;;;;;;4965991;28;20022;-78
2023/01/27 01:32:40;;;;;;;8.98;6.28;;;;;;;;;;4964696;28;20102;-78
2023/01/27 01:35:06;;;;;;;8.43;4.85;;;;;;;;;;4976353;28;20029;-79
2023/01/27 01:37:32;;;;;;;7.82;5.32;;;;;;;;;;4970896;28;20041;-79
2023/01/27 01:39:58;;;;;;;11.88;6.47;;;;;;;;;;4963102;28;20031;-79
2023/01/27 01:42:25;;;;;;;9.10;4.93;;;;;;;;;;4969692;28;20031;-79
2023/01/27 01:44:51;;;;;;;8.10;5.32;;;;;;;;;;4964407;28;20027;-78
2023/01/27 01:47:18;;;;;;;7.88;4.53;;;;;;;;;;4970529;28;20778;-78
2023/01/27 01:49:46;;;;;;;6.88;4.47;;;;;;;;;;4988480;28;20027;-77
2023/01/27 01:52:20;;;;;;;11.52;4.38;;;;;;;;;;4965513;28;20026;-77
2023/01/27 01:54:49;;;;;;;9.55;4.18;;;;;;;;;;4967549;28;20789;-78
2023/01/27 01:57:17;;;;;;;7.40;4.47;;;;;;;;;;4972077;28;20031;-79
2023/01/27 01:59:55;;;;;;;5.60;4.35;;;;;;;;;;4967692;28;20026;-77
2023/01/27 02:02:23;;;;;;;5.53;3.58;;;;;;;;;;4972186;28;20023;-78
2023/01/27 02:04:55;;;;;;;6.78;3.78;;;;;;;;;;4970433;28;20118;-78
2023/01/27 02:07:27;;;;;;;6.32;4.03;;;;;;;;;;4968093;28;20042;-78
2023/01/27 02:09:55;;;;;;;6.20;3.80;;;;;;;;;;4968467;28;20081;-78
2023/01/27 02:12:22;;;;;;;7.68;3.67;;;;;;;;;;4968995;28;20019;-78
2023/01/27 02:14:48;;;;;;;6.88;4.25;;;;;;;;;;4967303;28;20533;-78
2023/01/27 02:17:14;;;;;;;6.78;4.30;;;;;;;;;;4964115;28;20092;-79
2023/01/27 02:20:13;;;;;;;7.53;4.65;;;;;;;;;;4972115;28;20026;-78
2023/01/27 02:23:01;;;;;;;7.30;4.40;;;;;;;;;;4982413;28;20126;-78
2023/01/27 02:25:33;;;;;;;8.10;3.97;;;;;;;;;;4962926;28;20038;-78
2023/01/27 02:27:59;;;;;;;9.63;4.30;;;;;;;;;;4960847;28;20034;-78
2023/01/27 02:30:26;;;;;;;6.07;3.97;;;;;;;;;;4978624;28;20019;-78
2023/01/27 02:32:52;;;;;;;11.90;4.47;;;;;;;;;;4967705;28;20544;-78
2023/01/27 02:35:25;;;;;;;8.35;3.97;;;;;;;;;;4967335;28;20085;-79
2023/01/27 02:37:51;;;;;;;5.88;3.80;;;;;;;;;;4967474;28;20023;-78
2023/01/27 02:40:18;;;;;;;4.68;3.85;;;;;;;;;;4962968;28;20126;-78
2023/01/27 02:42:44;;;;;;;5.57;4.13;;;;;;;;;;4970983;28;20041;-78
2023/01/27 02:45:10;;;;;;;6.45;4.57;;;;;;;;;;4970648;28;20122;-77
2023/01/27 02:47:36;;;;;;;5.85;4.22;;;;;;;;;;4971728;28;20054;-78
2023/01/27 02:50:02;;;;;;;6.00;3.65;;;;;;;;;;4969828;28;20167;-78
2023/01/27 02:52:28;;;;;;;6.47;3.78;;;;;;;;;;4964360;28;20038;-80
2023/01/27 02:54:54;;;;;;;6.47;4.18;;;;;;;;;;4967205;28;20050;-79
2023/01/27 02:57:20;;;;;;;6.85;4.07;;;;;;;;;;4965463;28;20035;-78
2023/01/27 02:59:46;;;;;;;7.63;4.15;;;;;;;;;;4968404;28;20034;-78
2023/01/27 03:02:13;;;;;;;7.00;3.80;;;;;;;;;;4966087;28;20034;-78
2023/01/27 03:04:40;;;;;;;6.22;3.75;;;;;;;;;;4972631;28;20039;-78
2023/01/27 03:07:06;;;;;;;6.60;4.20;;;;;;;;;;4966064;28;20081;-77
2023/01/27 03:09:32;;;;;;;9.15;4.30;;;;;;;;;;4968708;28;20895;-79
2023/01/27 03:20:12;;;;;;;6.45;4.22;;;;;;;;;;4962075;28;20086;-78
2023/01/27 03:22:39;;;;;;;5.72;4.13;;;;;;;;;;4964562;28;20031;-79
2023/01/27 03:25:05;;;;;;;5.38;3.90;;;;;;;;;;4956341;28;20031;-78
2023/01/27 03:27:31;;;;;;;7.93;4.93;;;;;;;;;;4967207;28;20034;-78
2023/01/27 03:29:57;;;;;;;7.00;4.53;;;;;;;;;;4967338;28;20023;-79
2023/01/27 03:32:25;;;;;;;6.43;4.32;;;;;;;;;;4975221;28;20100;-79
2023/01/27 03:34:51;;;;;;;7.40;4.20;;;;;;;;;;4962614;28;20015;-79
2023/01/27 03:48:19;;;;;;;8.05;4.35;;;;;;;;;;4964084;28;20042;-79
2023/01/27 03:50:52;;;;;;;8.98;4.30;;;;;;;;;;4966329;28;20385;-79
2023/01/27 03:53:21;;;;;;;5.78;3.90;;;;;;;;;;4957310;28;20118;-78
2023/01/27 03:55:47;;;;;;;6.40;5.32;;;;;;;;;;4978150;28;20538;-79
2023/01/27 03:58:21;;;;;;;7.78;4.20;;;;;;;;;;4963353;28;20579;-79
2023/01/27 04:00:51;;;;;;;11.18;4.47;;;;;;;;;;4960603;28;20031;-78
2023/01/27 04:08:48;;;;;;;7.80;4.32;;;;;;;;;;4967138;28;20147;-78
2023/01/27 04:14:08;;;;;;;6.40;4.22;;;;;;;;;;4970692;28;20050;-78
2023/01/27 04:16:35;;;;;;;8.70;4.90;;;;;;;;;;4959238;28;20399;-79
2023/01/27 04:19:02;;;;;;;6.50;4.65;;;;;;;;;;4961907;28;20426;-78
2023/01/27 04:21:28;;;;;;;5.15;4.10;;;;;;;;;;4957402;28;20042;-78
2023/01/27 04:23:54;;;;;;;12.07;5.03;;;;;;;;;;4968398;28;20037;-78
2023/01/27 04:26:21;;;;;;;7.68;4.88;;;;;;;;;;4961574;28;20387;-79
2023/01/27 04:28:47;;;;;;;10.80;5.43;;;;;;;;;;4963435;28;20023;-79
2023/01/27 04:31:14;;;;;;;9.82;5.93;;;;;;;;;;4963759;28;20023;-78
2023/01/27 04:33:40;;;;;;;12.85;6.45;;;;;;;;;;4976212;28;20397;-79
2023/01/27 04:36:07;;;;;;;11.57;6.40;;;;;;;;;;4963234;28;20019;-78
2023/01/27 04:38:33;;;;;;;11.90;7.70;;;;;;;;;;4965079;28;20038;-78
2023/01/27 04:40:59;;;;;;;11.13;6.45;;;;;;;;;;4968375;28;20527;-78
2023/01/27 04:43:25;;;;;;;11.38;6.97;;;;;;;;;;4967202;28;20045;-78
2023/01/27 04:45:51;;;;;;;9.27;7.45;;;;;;;;;;4970082;28;20031;-79
2023/01/27 04:48:17;;;;;;;11.55;7.18;;;;;;;;;;4962945;28;20106;-78
2023/01/27 04:50:43;;;;;;;11.73;6.97;;;;;;;;;;4972871;28;20358;-79
2023/01/27 04:53:09;;;;;;;11.13;6.57;;;;;;;;;;4972452;28;20035;-79
2023/01/27 04:55:35;;;;;;;11.32;6.78;;;;;;;;;;4968225;28;20042;-78
2023/01/27 04:58:01;;;;;;;9.50;6.90;;;;;;;;;;4966717;28;20035;-79
2023/01/27 05:00:27;;;;;;;10.68;6.60;;;;;;;;;;4958953;28;20662;-78
2023/01/27 05:02:53;;;;;;;9.25;7.07;;;;;;;;;;4965693;28;20027;-78
2023/01/27 05:05:23;;;;;;;6.75;5.00;;;;;;;;;;4960940;28;20031;-78
2023/01/27 05:07:49;;;;;;;8.32;5.75;;;;;;;;;;4963089;28;20038;-78
2023/01/27 05:10:15;;;;;;;11.32;6.60;;;;;;;;;;4978580;28;20110;-78
2023/01/27 05:12:41;;;;;;;8.95;5.13;;;;;;;;;;4966921;28;20129;-78
2023/01/27 05:15:07;;;;;;;6.68;5.00;;;;;;;;;;4981281;28;20023;-79
2023/01/27 05:17:33;;;;;;;10.18;5.88;;;;;;;;;;4979595;28;20072;-78
2023/01/27 05:20:00;;;;;;;10.82;5.72;;;;;;;;;;4968037;28;20033;-78
2023/01/27 05:22:26;;;;;;;10.90;5.95;;;;;;;;;;4971559;28;20037;-77
2023/01/27 05:24:52;;;;;;;9.48;5.80;;;;;;;;;;4969228;28;20481;-78
2023/01/27 05:27:18;;;;;;;7.57;5.63;;;;;;;;;;4978767;28;20130;-78
2023/01/27 05:29:44;;;;;;;9.40;5.38;;;;;;;;;;4970873;28;20061;-78
2023/01/27 05:32:10;;;;;;;11.88;5.50;;;;;;;;;;4970591;28;20085;-77
2023/01/27 05:34:36;;;;;;;7.32;4.72;;;;;;;;;;4970081;28;20034;-79
2023/01/27 05:37:02;;;;;;;8.98;5.25;;;;;;;;;;4965739;28;20034;-78
2023/01/27 05:39:28;;;;;;;10.18;5.28;;;;;;;;;;4968901;28;20533;-78
2023/01/27 05:41:54;;;;;;;9.45;5.13;;;;;;;;;;4964841;28;20055;-78
2023/01/27 05:44:20;;;;;;;8.85;5.43;;;;;;;;;;4979089;28;20659;-79
2023/01/27 05:46:46;;;;;;;8.98;4.22;;;;;;;;;;4977229;28;20517;-79
2023/01/27 05:49:12;;;;;;;6.60;5.00;;;;;;;;;;4987867;28;20030;-78
2023/01/27 05:51:39;;;;;;;10.35;5.50;;;;;;;;;;4975314;28;20030;-76
2023/01/27 05:54:06;;;;;;;9.73;5.45;;;;;;;;;;4971359;28;20054;-79
2023/01/27 05:56:32;;;;;;;8.15;4.63;;;;;;;;;;4969571;28;20487;-79
2023/01/27 05:58:58;;;;;;;9.20;4.72;;;;;;;;;;4961398;28;20385;-78
2023/01/27 06:01:26;;;;;;;6.65;5.00;;;;;;;;;;4968841;28;20026;-77
2023/01/27 06:03:52;;;;;;;7.13;4.85;;;;;;;;;;4968603;28;20022;-78
2023/01/27 06:06:19;;;;;;;8.95;5.18;;;;;;;;;;4967722;28;20105;-78
2023/01/27 06:08:46;;;;;;;8.38;4.80;;;;;;;;;;4973806;28;20033;-78
2023/01/27 06:11:12;;;;;;;9.70;6.22;;;;;;;;;;4968399;28;20026;-77
2023/01/27 06:13:38;;;;;;;7.97;5.38;;;;;;;;;;4963022;28;20548;-78
2023/01/27 06:16:05;;;;;;;12.38;6.13;;;;;;;;;;4971702;28;20038;-78
2023/01/27 06:18:31;;;;;;;7.93;5.00;;;;;;;;;;4968120;28;20107;-78
2023/01/27 06:20:58;;;;;;;7.68;5.25;;;;;;;;;;4983564;28;20189;-78
2023/01/27 06:23:24;;;;;;;8.93;4.82;;;;;;;;;;4971773;28;20030;-79
2023/01/27 06:25:50;;;;;;;8.20;4.93;;;;;;;;;;4968848;28;20037;-79
2023/01/27 06:28:18;;;;;;;9.23;5.40;;;;;;;;;;4962500;28;20524;-78
2023/01/27 06:30:44;;;;;;;10.48;5.40;;;;;;;;;;4969228;28;20456;-77
2023/01/27 06:33:10;;;;;;;11.32;5.60;;;;;;;;;;4969370;28;20539;-78
2023/01/27 06:35:37;;;;;;;8.65;4.78;;;;;;;;;;4970259;28;20031;-78
2023/01/27 06:38:04;;;;;;;8.57;5.10;;;;;;;;;;4965212;28;20082;-77
2023/01/27 06:40:31;;;;;;;9.38;5.78;;;;;;;;;;4972003;28;20033;-79
2023/01/27 06:42:57;;;;;;;9.10;5.32;;;;;;;;;;4972124;28;20019;-77
2023/01/27 06:45:23;;;;;;;8.23;5.32;;;;;;;;;;4968113;28;20453;-77
2023/01/27 06:47:56;;;;;;;7.40;5.13;;;;;;;;;;4971751;28;20029;-78
2023/01/27 06:50:23;;;;;;;8.48;5.00;;;;;;;;;;4968728;28;20085;-78
2023/01/27 06:52:49;;;;;;;8.73;5.53;;;;;;;;;;4970096;28;20512;-78
2023/01/27 06:55:15;;;;;;;8.82;4.32;;;;;;;;;;4965207;28;20086;-78
2023/01/27 06:57:41;;;;;;;9.82;5.30;;;;;;;;;;4970550;28;20034;-78
2023/01/27 07:00:08;;;;;;;8.35;5.30;;;;;;;;;;4962836;28;20117;-79
2023/01/27 07:02:34;;;;;;;6.75;5.15;;;;;;;;;;4965262;28;20062;-77
2023/01/27 07:05:00;;;;;;;7.50;4.60;;;;;;;;;;4969855;28;20034;-78
2023/01/27 07:07:26;;;;;;;9.90;5.82;;;;;;;;;;4965657;28;20082;-78
2023/01/27 07:09:52;;;;;;;8.63;5.00;;;;;;;;;;4968146;28;20106;-78
2023/01/27 07:12:18;;;;;;;7.97;4.57;;;;;;;;;;4961595;28;20027;-78
2023/01/27 07:14:44;;;;;;;8.50;4.85;;;;;;;;;;4960333;28;20031;-78
2023/01/27 07:17:10;;;;;;;9.38;4.78;;;;;;;;;;4967270;28;20037;-79
2023/01/27 07:19:36;;;;;;;8.27;5.35;;;;;;;;;;4963760;28;20039;-79
2023/01/27 07:22:02;;;;;;;9.02;5.05;;;;;;;;;;4966882;28;20278;-78
2023/01/27 07:24:28;;;;;;;7.53;4.53;;;;;;;;;;4967654;28;20031;-77
2023/01/27 07:26:54;;;;;;;7.90;4.90;;;;;;;;;;4967220;28;20086;-78
2023/01/27 07:29:20;;;;;;;9.07;3.97;;;;;;;;;;4968655;28;20089;-78
2023/01/27 07:31:46;;;;;;;5.47;3.92;;;;;;;;;;4968615;28;20111;-78
2023/01/27 07:34:12;;;;;;;6.43;4.00;;;;;;;;;;4964894;28;20027;-79
2023/01/27 07:36:39;;;;;;;7.22;4.20;;;;;;;;;;4965941;28;20061;-77
2023/01/27 07:39:05;;;;;;;9.02;4.47;;;;;;;;;;4969648;28;20031;-78
2023/01/27 07:41:31;;;;;;;9.27;5.15;;;;;;;;;;4965790;28;20037;-79
2023/01/27 07:43:57;;;;;;;8.88;3.80;;;;;;;;;;4968183;28;20031;-78
2023/01/27 07:46:23;;;;;;;10.60;5.05;;;;;;;;;;4966918;28;20031;-78
2023/01/27 07:48:49;;;;;;;5.35;3.88;;;;;;;;;;4964197;28;20134;-78
2023/01/27 07:51:15;;;;;;;9.30;4.82;;;;;;;;;;4981470;28;20052;-78
2023/01/27 07:53:41;;;;;;;8.40;3.95;;;;;;;;;;4965221;28;20034;-78
2023/01/27 07:56:11;;;;;;;5.28;3.45;;;;;;;;;;4967690;28;20025;-78
2023/01/27 07:58:38;;;;;;;7.25;3.53;;;;;;;;;;4964995;28;20031;-79
2023/01/27 08:01:05;;;;;;;6.72;2.75;;;;;;;;;;4982613;28;20655;-78
2023/01/27 08:03:31;;;;;;;4.75;3.25;;;;;;;;;;4964177;28;20053;-79
2023/01/27 08:05:57;;;;;;;4.80;3.10;;;;;;;;;;4967495;28;20041;-80
2023/01/27 08:08:23;;;;;;;3.97;2.80;;;;;;;;;;4975022;28;20035;-79
2023/01/27 08:10:53;;;;;;;3.42;2.63;;;;;;;;;;4977991;28;20690;-78
2023/01/27 08:13:21;;;;;;;5.15;3.20;;;;;;;;;;4965381;28;20041;-79
2023/01/27 08:15:47;;;;;;;3.45;2.80;;;;;;;;;;4964125;28;20038;-78
2023/01/27 08:18:13;;;;;;;5.45;3.30;;;;;;;;;;4966070;28;20030;-79
2023/01/27 08:20:39;;;;;;;4.38;2.90;;;;;;;;;;4965874;28;20059;-79
2023/01/27 08:23:05;;;;;;;4.80;2.85;;;;;;;;;;4966911;28;20046;-79
2023/01/27 08:25:32;;;;;;;4.57;3.10;;;;;;;;;;4965008;28;20166;-78
2023/01/27 08:27:58;;;;;;;3.80;2.40;;;;;;;;;;4965622;28;20389;-79
2023/01/27 08:30:24;;;;;;;9.20;2.90;;;;;;;;;;4965378;28;20027;-79
2023/01/27 08:32:50;;;;;;;3.33;2.75;;;;;;;;;;4972095;28;20019;-79
2023/01/27 08:35:17;;;;;;;3.70;2.63;;;;;;;;;;4969071;28;20026;-78
2023/01/27 08:37:43;;;;;;;5.32;2.47;;;;;;;;;;4966270;28;20077;-79
2023/01/27 08:40:09;;;;;;;5.25;3.45;;;;;;;;;;4968951;28;20037;-79
2023/01/27 08:42:35;;;;;;;4.35;2.83;;;;;;;;;;4968477;28;20034;-79
2023/01/27 08:45:01;;;;;;;3.67;2.60;;;;;;;;;;4967437;28;20099;-78
2023/01/27 08:47:27;;;;;;;3.42;2.30;;;;;;;;;;4970687;28;20058;-79
2023/01/27 08:49:53;;;;;;;4.00;2.58;;;;;;;;;;4967995;28;20130;-78
2023/01/27 08:52:21;;;;;;;6.38;3.20;;;;;;;;;;4964077;28;20031;-78
2023/01/27 08:54:47;;;;;;;3.67;2.72;;;;;;;;;;4970736;28;20049;-78
2023/01/27 08:57:13;;;;;;;4.22;2.83;;;;;;;;;;4968349;28;20034;-78
2023/01/27 08:59:39;;;;;;;5.68;3.67;;;;;;;;;;4972783;28;20023;-81
2023/01/27 09:02:06;;;;;;;10.25;4.57;;;;;;;;;;4970299;28;20070;-78
2023/01/27 09:04:32;;;;;;;6.93;3.70;;;;;;;;;;4969604;28;20046;-79
2023/01/27 09:06:58;;;;;;;7.22;3.58;;;;;;;;;;4967052;28;20037;-78
2023/01/27 09:09:24;;;;;;;8.98;4.97;;;;;;;;;;4966965;28;20106;-79
2023/01/27 09:11:50;;;;;;;9.65;4.88;;;;;;;;;;4965632;28;20030;-77
2023/01/27 09:14:16;;;;;;;12.93;6.70;;;;;;;;;;4968375;28;20022;-78
2023/01/27 09:16:42;;;;;;;13.27;5.35;;;;;;;;;;4969771;28;20061;-78
2023/01/27 09:19:08;;;;;;;10.40;5.88;;;;;;;;;;4991237;28;20505;-78
2023/01/27 09:21:34;;;;;;;8.82;5.20;;;;;;;;;;4974112;28;20130;-77
2023/01/27 09:24:00;;;;;;;5.60;3.83;;;;;;;;;;4967279;28;20023;-79
2023/01/27 09:26:27;;;;;;;5.10;3.53;;;;;;;;;;4970424;28;20038;-79
2023/01/27 09:28:53;;;;;;;5.88;3.63;;;;;;;;;;4971105;28;20062;-80
2023/01/27 09:31:19;;;;;;;7.07;4.00;;;;;;;;;;4966905;28;20025;-78
2023/01/27 09:33:45;;;;;;;7.35;4.30;;;;;;;;;;4983835;28;20022;-78
2023/01/27 09:36:14;;;;;;;5.43;3.40;;;;;;;;;;4973212;28;20026;-79
2023/01/27 09:38:49;;;;;;;4.72;3.30;;;;;;;;;;4971665;28;20560;-79
2023/01/27 09:41:34;;;;;;;3.97;2.92;;;;;;;;;;4973305;28;20046;-79
2023/01/27 09:44:02;;;;;;;3.88;2.90;;;;;;;;;;4970206;28;20039;-79
2023/01/27 09:46:57;;;;;;;8.55;4.20;;;;;;;;;;4967240;28;20043;-80
2023/01/27 09:49:23;;;;;;;4.18;3.05;;;;;;;;;;4976554;28;20041;-80
2023/01/27 09:51:55;;;;;;;4.15;2.75;;;;;;;;;;4973052;28;20058;-79
2023/01/27 09:54:27;;;;;;;4.15;3.10;;;;;;;;;;4969254;28;20043;-79
2023/01/27 09:56:53;;;;;;;3.65;2.85;;;;;;;;;;4969334;28;20388;-79
2023/01/27 09:59:29;;;;;;;4.30;2.78;;;;;;;;;;4969380;28;20308;-79
2023/01/27 10:01:55;;;;;;;7.07;3.08;;;;;;;;;;4965872;28;20037;-78
2023/01/27 10:04:29;;;;;;;5.45;3.30;;;;;;;;;;4965733;28;20035;-79
2023/01/27 10:07:16;;;;;;;7.40;3.60;;;;;;;;;;4966819;28;20034;-79
2023/01/27 10:09:45;;;;;;;4.75;3.42;;;;;;;;;;4967437;28;20473;-79
2023/01/27 10:12:31;;;;;;;5.00;3.00;;;;;;;;;;4964914;28;20035;-78
2023/01/27 10:15:23;;;;;;;5.15;3.05;;;;;;;;;;4967141;28;20027;-77
2023/01/27 10:17:52;;;;;;;4.32;3.05;;;;;;;;;;4982478;28;20045;-78
2023/01/27 10:20:21;;;;;;;4.28;3.03;;;;;;;;;;4967258;28;20031;-79
2023/01/27 10:22:59;;;;;;;4.53;3.47;;;;;;;;;;4978625;28;20035;-79
2023/01/27 10:25:41;;;;;;;8.38;4.25;;;;;;;;;;4963464;28;20400;-80
2023/01/27 10:28:14;;;;;;;5.43;3.60;;;;;;;;;;4965251;28;20039;-78
2023/01/27 10:31:03;;;;;;;4.07;2.80;;;;;;;;;;4964557;28;20026;-78
2023/01/27 10:33:35;;;;;;;5.18;3.17;;;;;;;;;;4968553;28;20051;-78
2023/01/27 10:36:10;;;;;;;4.13;2.95;;;;;;;;;;4977071;28;20809;-78
2023/01/27 10:38:55;;;;;;;4.28;2.90;;;;;;;;;;4979572;28;20030;-79
2023/01/27 10:41:47;;;;;;;6.77;3.97;;;;;;;;;;4976623;28;20035;-79
2023/01/27 10:44:22;;;;;;;4.57;3.22;;;;;;;;;;4964634;28;20508;-79
2023/01/27 10:47:08;;;;;;;3.72;3.17;;;;;;;;;;4963965;28;20062;-78
2023/01/27 10:49:56;;;;;;;4.32;2.85;;;;;;;;;;4968960;28;20125;-79
2023/01/27 10:52:42;;;;;;;4.13;2.75;;;;;;;;;;4964505;28;20031;-78
2023/01/27 10:55:17;;;;;;;2.97;2.40;;;;;;;;;;4964603;28;20127;-79
2023/01/27 10:57:52;;;;;;;3.83;2.75;;;;;;;;;;4964679;28;20037;-78
2023/01/27 11:00:21;;;;;;;4.95;3.33;;;;;;;;;;4964789;28;20065;-79
2023/01/27 11:03:09;;;;;;;5.13;2.88;;;;;;;;;;4965227;28;20122;-79
2023/01/27 11:05:37;;;;;;;5.28;3.22;;;;;;;;;;4965481;28;20025;-79
2023/01/27 11:08:07;;;;;;;6.75;2.50;;;;;;;;;;4968678;28;20058;-80
2023/01/27 11:10:38;;;;;;;4.97;3.25;;;;;;;;;;4967468;28;20031;-79
2023/01/27 11:13:04;;;;;;;4.75;2.90;;;;;;;;;;4972563;28;21111;-80
2023/01/27 11:15:32;;;;;;;4.88;3.10;;;;;;;;;;4973918;28;20034;-78
2023/01/27 11:18:04;;;;;;;3.50;2.90;;;;;;;;;;4971302;28;20081;-78
2023/01/27 11:20:31;;;;;;;5.80;3.75;;;;;;;;;;4967585;28;20615;-79
2023/01/27 11:23:09;;;;;;;3.53;2.63;;;;;;;;;;4966936;28;20037;-79
2023/01/27 11:25:44;;;;;;;4.47;2.63;;;;;;;;;;4966699;28;20043;-79
2023/01/27 11:28:10;;;;;;;4.00;2.60;;;;;;;;;;4978027;28;20039;-78
2023/01/27 11:30:46;;;;;;;2.83;2.20;;;;;;;;;;4964349;28;20027;-79
2023/01/27 11:33:36;;;;;;;3.28;2.40;;;;;;;;;;4966170;28;20030;-79
2023/01/27 11:36:02;;;;;;;8.13;3.80;;;;;;;;;;4973933;28;20035;-78
2023/01/27 11:38:28;;;;;;;3.63;2.30;;;;;;;;;;4963567;28;20085;-78
2023/01/27 11:40:54;;;;;;;4.05;2.60;;;;;;;;;;4968768;28;20050;-78
2023/01/27 11:43:23;;;;;;;3.13;2.33;;;;;;;;;;4969045;28;20135;-78
2023/01/27 11:45:49;;;;;;;2.33;2.10;;;;;;;;;;4979861;28;20091;-79
2023/01/27 11:48:17;;;;;;;3.25;2.20;;;;;;;;;;4966201;28;20030;-77
2023/01/27 11:50:44;;;;;;;18.05;8.95;;;;;;;;;;4965809;28;20054;-78
2023/01/27 11:53:12;;;;;;;9.68;4.32;;;;;;;;;;4967284;28;20029;-79
2023/01/27 11:55:43;;;;;;;5.45;2.85;;;;;;;;;;4965717;28;20046;-79
2023/01/27 11:58:20;;;;;;;4.25;3.10;;;;;;;;;;4969167;28;20053;-79
2023/01/27 12:00:48;;;;;;;3.97;2.58;;;;;;;;;;4967372;28;20034;-79
2023/01/27 12:03:30;;;;;;;4.30;2.50;;;;;;;;;;4981589;28;20042;-80
2023/01/27 12:05:58;;;;;;;4.82;3.20;;;;;;;;;;4968786;28;20575;-80
2023/01/27 12:08:43;;;;;;;2.90;2.40;;;;;;;;;;4972369;28;20058;-78
2023/01/27 12:11:23;;;;;;;3.42;2.50;;;;;;;;;;4969530;28;20019;-79
2023/01/27 12:14:00;;;;;;;3.63;3.03;;;;;;;;;;4969496;28;20030;-79
2023/01/27 12:16:42;;;;;;;5.15;3.03;;;;;;;;;;4969096;28;20098;-80
2023/01/27 12:19:28;;;;;;;4.75;2.22;;;;;;;;;;4969909;28;20497;-79
2023/01/27 12:21:56;;;;;;;3.80;2.30;;;;;;;;;;4968452;28;20394;-79
2023/01/27 12:24:33;;;;;;;3.10;1.92;;;;;;;;;;4967727;28;20533;-78
2023/01/27 12:26:59;;;;;;;3.67;2.83;;;;;;;;;;4968299;28;20073;-81
2023/01/27 12:29:40;;;;;;;3.42;2.20;;;;;;;;;;4976249;28;20517;-79
2023/01/27 12:32:14;;;;;;;4.95;2.15;;;;;;;;;;4967556;28;20117;-81
2023/01/27 12:34:43;;;;;;;3.70;2.72;;;;;;;;;;4968889;28;20030;-80
2023/01/27 12:37:19;;;;;;;4.22;3.10;;;;;;;;;;4965487;28;20039;-80
2023/01/27 12:39:45;;;;;;;;;;;;;;;;;;4968789;28;20505;-80
2023/01/27 12:42:30;;;;;;;3.63;2.03;;;;;;;;;;4967380;28;20379;-79
2023/01/27 12:44:56;;;;;;;4.15;1.98;;;;;;;;;;4966533;28;20023;-81
2023/01/27 12:47:22;;;;;;;3.92;2.08;;;;;;;;;;4961285;28;20768;-79
2023/01/27 12:49:48;;;;;;;4.22;2.00;;;;;;;;;;4963445;28;20027;-79
2023/01/27 12:52:21;;;;;;;2.65;1.85;;;;;;;;;;4967923;28;20027;-78
2023/01/27 12:54:50;;;;;;;2.78;1.83;;;;;;;;;;4966048;28;20043;-77
2023/01/27 12:57:18;;;;;;;4.07;2.00;;;;;;;;;;4966190;28;20090;-78
2023/01/27 12:59:47;;;;;;;2.85;1.88;;;;;;;;;;4967068;28;20070;-79
2023/01/27 13:02:18;;;;;;;1.88;1.70;;;;;;;;;;4966003;28;20038;-79
2023/01/27 13:04:50;;;;;;;2.30;1.80;;;;;;;;;;4965370;28;20119;-78
2023/01/27 13:07:17;;;;;;;2.80;1.60;;;;;;;;;;4965265;28;20490;-81
2023/01/27 13:10:00;;;;;;;2.53;2.00;;;;;;;;;;4965009;28;20039;-80
2023/01/27 13:12:30;;;;;;;4.13;2.22;;;;;;;;;;4963415;28;20533;-78
2023/01/27 13:14:57;;;;;;;3.80;2.13;;;;;;;;;;4963660;28;20030;-79
2023/01/27 13:17:43;;;;;;;2.70;2.10;;;;;;;;;;4966213;28;20031;-78
2023/01/27 13:20:19;;;;;;;3.35;2.10;;;;;;;;;;4974456;28;20027;-78
2023/01/27 13:22:50;;;;;;;2.83;2.30;;;;;;;;;;4964552;28;20035;-80
2023/01/27 13:25:26;;;;;;;1.80;1.70;;;;;;;;;;4960995;28;20801;-78
2023/01/27 13:27:54;;;;;;;2.20;1.77;;;;;;;;;;4965649;28;20090;-78
2023/01/27 13:30:23;;;;;;;6.13;3.65;;;;;;;;;;4964993;28;20046;-80
2023/01/27 13:32:52;;;;;;;4.13;2.72;;;;;;;;;;4983012;28;20490;-80
2023/01/27 13:35:28;;;;;;;3.20;2.00;;;;;;;;;;4970073;28;20121;-83
2023/01/27 13:38:04;;;;;;;3.25;2.70;;;;;;;;;;4968255;28;20093;-83
2023/01/27 13:40:36;;;;;;;3.38;2.85;;;;;;;;;;4969667;28;20109;-81
2023/01/27 13:43:18;;;;;;;2.95;2.20;;;;;;;;;;4972871;28;20640;-81
2023/01/27 13:45:54;;;;;;;2.95;2.40;;;;;;;;;;4977907;28;20490;-80
2023/01/27 13:48:24;;;;;;;3.00;2.55;;;;;;;;;;4983932;28;20039;-80
2023/01/27 13:51:00;;;;;;;3.22;2.50;;;;;;;;;;4967835;28;20027;-81
2023/01/27 13:53:26;;;;;;;2.80;2.42;;;;;;;;;;4967600;28;21159;-79
2023/01/27 13:56:01;;;;;;;3.20;2.53;;;;;;;;;;4966025;28;20036;-79
2023/01/27 13:59:00;;;;;;;3.15;2.03;;;;;;;;;;4964175;28;20121;-79
2023/01/27 14:01:45;;;;;;;4.05;2.20;;;;;;;;;;4964980;28;20070;-81
2023/01/27 14:04:23;;;;;;;3.50;2.30;;;;;;;;;;4982276;28;20457;-81
2023/01/27 14:06:59;;;;;;;3.47;2.20;;;;;;;;;;4988527;28;20055;-81
2023/01/27 14:09:25;;;;;;;3.30;2.22;;;;;;;;;;4973651;28;20043;-78
2023/01/27 14:11:57;;;;;;;3.35;2.15;;;;;;;;;;4989029;28;20015;-80
2023/01/27 14:14:42;;;;;;;3.28;2.10;;;;;;;;;;4974833;28;20033;-80
2023/01/27 14:17:16;;;;;;;3.25;2.33;;;;;;;;;;4968960;28;20050;-79
2023/01/27 14:19:42;;;;;;;3.33;2.63;;;;;;;;;;4971168;28;20014;-79
2023/01/27 14:22:18;;;;;;;4.75;2.33;;;;;;;;;;4976287;28;20527;-80
2023/01/27 14:24:52;;;;;;;2.67;2.10;;;;;;;;;;4994254;28;20027;-80
2023/01/27 14:27:24;;;;;;;3.72;2.60;;;;;;;;;;4977764;28;20050;-78
2023/01/27 14:29:53;;;;;;;6.22;4.53;;;;;;;;;;4981163;28;20986;-79
2023/01/27 14:32:36;;;;;;;3.08;2.60;;;;;;;;;;4977353;28;20501;-79
2023/01/27 14:35:11;;;;;;;3.00;1.90;;;;;;;;;;4981945;28;20125;-82
2023/01/27 14:37:40;;;;;;;3.95;2.50;;;;;;;;;;4983606;28;20089;-80
2023/01/27 14:40:16;;;;;;;4.57;2.35;;;;;;;;;;4977493;28;20427;-79
2023/01/27 14:42:41;;;;;;;;;;;;;;;;;;4973734;28;20027;-80
2023/01/27 14:45:07;;;;;;;;;;;;;;;;;;4977494;28;19914;-78
2023/01/27 14:47:33;;;;;;;;;;;;;;;;;;4978175;28;20345;-80
2023/01/27 14:49:59;;;;;;;;;;;;;;;;;;4976451;28;19910;-80
2023/01/27 14:52:36;;;;;;;6.63;2.90;;;;;;;;;;5003853;28;20632;-79
2023/01/27 14:55:21;;;;;;;4.20;3.30;;;;;;;;;;4979015;28;20062;-78
2023/01/27 14:57:47;;;;;;;5.85;3.42;;;;;;;;;;4993399;28;20050;-80
2023/01/27 15:00:32;;;;;;;3.28;2.97;;;;;;;;;;4989957;28;20050;-79
2023/01/27 15:03:01;;;;;;;5.43;2.87;;;;;;;;;;4978506;28;20026;-80
2023/01/27 15:05:30;;;;;;;2.78;2.47;;;;;;;;;;4986422;28;20397;-80
2023/01/27 15:08:01;;;;;;;4.00;2.80;;;;;;;;;;4985984;28;20506;-79
2023/01/27 15:10:28;;;;;;;2.95;2.22;;;;;;;;;;4982377;28;20042;-79
2023/01/27 15:13:20;;;;;;;2.50;2.08;;;;;;;;;;4980042;28;20026;-79
2023/01/27 15:16:05;;;;;;;3.95;2.70;;;;;;;;;;4985305;28;20086;-80
2023/01/27 15:18:44;;;;;;;4.33;2.87;;;;;;;;;;4976861;28;20057;-79
2023/01/27 15:21:19;;;;;;;3.65;2.38;;;;;;;;;;4971397;28;20027;-81
2023/01/27 15:23:55;;;;;;;6.13;3.75;;;;;;;;;;4989494;28;20563;-77
2023/01/27 15:26:24;;;;;;;4.43;3.25;;;;;;;;;;4978566;28;20074;-79
2023/01/27 15:28:50;;;;;;;8.50;4.72;;;;;;;;;;4981261;28;20037;-77
2023/01/27 15:31:16;;;;;;;8.82;5.50;;;;;;;;;;4986941;28;20105;-80
2023/01/27 15:33:52;;;;;;;10.45;5.43;;;;;;;;;;4990570;28;20058;-80
2023/01/27 15:36:31;;;;;;;6.75;4.07;;;;;;;;;;4982674;28;20033;-79